sensor_id;sensor_type;location;lat;lon;timestamp;P1;durP1;ratioP1;P2;durP2;ratioP2
69985;SDS011;57328;52.054;5.294;2022-12-18T00:00:01;32.95;;;11.30;;
69985;SDS011;57328;52.054;5.294;2022-12-18T00:02:28;47.83;;;15.00;;
69985;SDS011;57328;52.054;5.294;2022-12-18T00:04:55;42.33;;;13.38;;
69985;SDS011;57328;52.054;5.294;2022-12-18T00:07:22;37.22;;;12.75;;
69985;SDS011;57328;52.054;5.294;2022-12-18T00:09:49;45.00;;;14.73;;
69985;SDS011;57328;52.054;5.294;2022-12-18T00:15:02;27.48;;;10.32;;
69985;SDS011;57328;52.054;5.294;2022-12-18T00:17:30;44.53;;;14.88;;
69985;SDS011;57328;52.054;5.294;2022-12-18T00:19:57;52.33;;;15.02;;
69985;SDS011;57328;52.054;5.294;2022-12-18T00:22:24;40.10;;;12.85;;
69985;SDS011;57328;52.054;5.294;2022-12-18T00:24:51;42.58;;;13.57;;
69985;SDS011;57328;52.054;5.294;2022-12-18T00:27:18;48.40;;;15.13;;
69985;SDS011;57328;52.054;5.294;2022-12-18T00:29:45;56.88;;;16.25;;
69985;SDS011;57328;52.054;5.294;2022-12-18T00:32:12;50.78;;;14.88;;
69985;SDS011;57328;52.054;5.294;2022-12-18T00:34:40;29.52;;;9.50;;
69985;SDS011;57328;52.054;5.294;2022-12-18T00:37:07;47.28;;;14.77;;
69985;SDS011;57328;52.054;5.294;2022-12-18T00:39:34;49.20;;;15.55;;
69985;SDS011;57328;52.054;5.294;2022-12-18T00:42:01;44.40;;;13.95;;
69985;SDS011;57328;52.054;5.294;2022-12-18T00:44:47;40.53;;;13.30;;
69985;SDS011;57328;52.054;5.294;2022-12-18T00:47:14;54.25;;;15.75;;
69985;SDS011;57328;52.054;5.294;2022-12-18T00:49:41;35.13;;;11.82;;
69985;SDS011;57328;52.054;5.294;2022-12-18T00:52:08;46.42;;;14.68;;
69985;SDS011;57328;52.054;5.294;2022-12-18T00:54:35;49.55;;;14.82;;
69985;SDS011;57328;52.054;5.294;2022-12-18T00:57:03;51.63;;;16.30;;
69985;SDS011;57328;52.054;5.294;2022-12-18T00:59:30;46.72;;;13.13;;
69985;SDS011;57328;52.054;5.294;2022-12-18T01:01:57;50.63;;;15.90;;
69985;SDS011;57328;52.054;5.294;2022-12-18T01:04:24;37.38;;;11.75;;
69985;SDS011;57328;52.054;5.294;2022-12-18T01:06:51;51.08;;;14.80;;
69985;SDS011;57328;52.054;5.294;2022-12-18T01:09:18;46.97;;;12.77;;
69985;SDS011;57328;52.054;5.294;2022-12-18T01:11:45;56.95;;;17.05;;
69985;SDS011;57328;52.054;5.294;2022-12-18T01:14:12;52.55;;;16.40;;
69985;SDS011;57328;52.054;5.294;2022-12-18T01:16:40;47.70;;;14.30;;
69985;SDS011;57328;52.054;5.294;2022-12-18T01:19:07;38.25;;;13.77;;
69985;SDS011;57328;52.054;5.294;2022-12-18T01:21:34;52.30;;;15.93;;
69985;SDS011;57328;52.054;5.294;2022-12-18T01:24:01;46.10;;;15.07;;
69985;SDS011;57328;52.054;5.294;2022-12-18T01:26:28;42.95;;;14.48;;
69985;SDS011;57328;52.054;5.294;2022-12-18T01:28:56;44.55;;;15.65;;
69985;SDS011;57328;52.054;5.294;2022-12-18T01:33:50;36.65;;;12.85;;
69985;SDS011;57328;52.054;5.294;2022-12-18T01:36:19;39.53;;;14.63;;
69985;SDS011;57328;52.054;5.294;2022-12-18T01:38:47;58.53;;;16.73;;
69985;SDS011;57328;52.054;5.294;2022-12-18T01:41:15;49.72;;;15.52;;
69985;SDS011;57328;52.054;5.294;2022-12-18T01:43:44;47.00;;;12.85;;
69985;SDS011;57328;52.054;5.294;2022-12-18T01:46:11;46.78;;;14.63;;
69985;SDS011;57328;52.054;5.294;2022-12-18T01:48:39;46.45;;;15.00;;
69985;SDS011;57328;52.054;5.294;2022-12-18T01:51:07;37.30;;;11.52;;
69985;SDS011;57328;52.054;5.294;2022-12-18T01:53:35;49.20;;;15.50;;
69985;SDS011;57328;52.054;5.294;2022-12-18T01:56:03;46.53;;;15.00;;
69985;SDS011;57328;52.054;5.294;2022-12-18T01:58:41;42.78;;;15.02;;
69985;SDS011;57328;52.054;5.294;2022-12-18T02:01:10;39.72;;;13.20;;
69985;SDS011;57328;52.054;5.294;2022-12-18T02:03:40;41.53;;;13.55;;
69985;SDS011;57328;52.054;5.294;2022-12-18T02:06:29;33.03;;;11.45;;
69985;SDS011;57328;52.054;5.294;2022-12-18T02:09:11;42.33;;;13.50;;
69985;SDS011;57328;52.054;5.294;2022-12-18T02:11:41;43.70;;;13.68;;
69985;SDS011;57328;52.054;5.294;2022-12-18T02:19:39;41.97;;;13.85;;
69985;SDS011;57328;52.054;5.294;2022-12-18T02:24:36;42.30;;;14.15;;
69985;SDS011;57328;52.054;5.294;2022-12-18T02:27:07;49.72;;;14.80;;
69985;SDS011;57328;52.054;5.294;2022-12-18T02:29:40;43.88;;;15.18;;
69985;SDS011;57328;52.054;5.294;2022-12-18T02:32:09;44.78;;;14.90;;
69985;SDS011;57328;52.054;5.294;2022-12-18T02:34:38;49.10;;;15.57;;
69985;SDS011;57328;52.054;5.294;2022-12-18T02:37:07;46.55;;;14.23;;
69985;SDS011;57328;52.054;5.294;2022-12-18T02:39:38;43.30;;;13.43;;
69985;SDS011;57328;52.054;5.294;2022-12-18T02:42:05;49.05;;;16.30;;
69985;SDS011;57328;52.054;5.294;2022-12-18T02:44:46;52.92;;;15.75;;
69985;SDS011;57328;52.054;5.294;2022-12-18T02:47:15;45.40;;;13.82;;
69985;SDS011;57328;52.054;5.294;2022-12-18T02:49:53;42.15;;;14.55;;
69985;SDS011;57328;52.054;5.294;2022-12-18T03:00:58;44.17;;;14.98;;
69985;SDS011;57328;52.054;5.294;2022-12-18T03:03:00;41.67;;;15.02;;
69985;SDS011;57328;52.054;5.294;2022-12-18T03:05:32;41.85;;;14.23;;
69985;SDS011;57328;52.054;5.294;2022-12-18T03:08:03;45.33;;;15.50;;
69985;SDS011;57328;52.054;5.294;2022-12-18T03:10:32;40.45;;;14.07;;
69985;SDS011;57328;52.054;5.294;2022-12-18T03:13:14;39.30;;;14.88;;
69985;SDS011;57328;52.054;5.294;2022-12-18T03:15:48;47.75;;;15.57;;
69985;SDS011;57328;52.054;5.294;2022-12-18T03:18:17;45.50;;;15.68;;
69985;SDS011;57328;52.054;5.294;2022-12-18T03:20:45;41.08;;;14.05;;
69985;SDS011;57328;52.054;5.294;2022-12-18T03:23:18;41.08;;;14.35;;
69985;SDS011;57328;52.054;5.294;2022-12-18T03:25:52;40.17;;;14.95;;
69985;SDS011;57328;52.054;5.294;2022-12-18T03:30:49;31.52;;;12.80;;
69985;SDS011;57328;52.054;5.294;2022-12-18T03:33:23;47.15;;;13.63;;
69985;SDS011;57328;52.054;5.294;2022-12-18T03:35:52;38.22;;;14.13;;
69985;SDS011;57328;52.054;5.294;2022-12-18T03:38:20;36.72;;;14.00;;
69985;SDS011;57328;52.054;5.294;2022-12-18T03:40:50;40.58;;;14.88;;
69985;SDS011;57328;52.054;5.294;2022-12-18T03:43:20;37.65;;;12.50;;
69985;SDS011;57328;52.054;5.294;2022-12-18T03:45:54;34.17;;;12.55;;
69985;SDS011;57328;52.054;5.294;2022-12-18T03:50:56;33.50;;;12.70;;
69985;SDS011;57328;52.054;5.294;2022-12-18T03:55:51;29.70;;;9.85;;
69985;SDS011;57328;52.054;5.294;2022-12-18T03:58:19;34.88;;;12.50;;
69985;SDS011;57328;52.054;5.294;2022-12-18T04:00:47;34.22;;;10.90;;
69985;SDS011;57328;52.054;5.294;2022-12-18T04:03:17;32.85;;;11.18;;
69985;SDS011;57328;52.054;5.294;2022-12-18T04:05:51;31.95;;;11.68;;
69985;SDS011;57328;52.054;5.294;2022-12-18T04:08:19;35.65;;;13.30;;
69985;SDS011;57328;52.054;5.294;2022-12-18T04:10:47;24.50;;;8.23;;
69985;SDS011;57328;52.054;5.294;2022-12-18T04:13:21;22.98;;;8.57;;
69985;SDS011;57328;52.054;5.294;2022-12-18T04:15:48;23.27;;;9.30;;
69985;SDS011;57328;52.054;5.294;2022-12-18T04:18:15;25.73;;;8.60;;
69985;SDS011;57328;52.054;5.294;2022-12-18T04:20:42;28.80;;;10.35;;
69985;SDS011;57328;52.054;5.294;2022-12-18T04:23:10;30.15;;;10.88;;
69985;SDS011;57328;52.054;5.294;2022-12-18T04:25:37;25.88;;;10.00;;
69985;SDS011;57328;52.054;5.294;2022-12-18T04:28:04;21.73;;;7.32;;
69985;SDS011;57328;52.054;5.294;2022-12-18T04:30:31;22.15;;;7.93;;
69985;SDS011;57328;52.054;5.294;2022-12-18T04:32:58;20.73;;;8.20;;
69985;SDS011;57328;52.054;5.294;2022-12-18T04:35:25;27.27;;;9.85;;
69985;SDS011;57328;52.054;5.294;2022-12-18T04:37:52;23.42;;;7.32;;
69985;SDS011;57328;52.054;5.294;2022-12-18T04:40:19;24.88;;;10.20;;
69985;SDS011;57328;52.054;5.294;2022-12-18T04:42:47;25.27;;;8.93;;
69985;SDS011;57328;52.054;5.294;2022-12-18T04:45:14;29.95;;;10.60;;
69985;SDS011;57328;52.054;5.294;2022-12-18T04:47:41;22.50;;;8.65;;
69985;SDS011;57328;52.054;5.294;2022-12-18T04:50:09;27.65;;;9.38;;
69985;SDS011;57328;52.054;5.294;2022-12-18T04:52:36;20.77;;;8.52;;
69985;SDS011;57328;52.054;5.294;2022-12-18T04:55:03;26.55;;;10.52;;
69985;SDS011;57328;52.054;5.294;2022-12-18T04:57:31;26.90;;;9.43;;
69985;SDS011;57328;52.054;5.294;2022-12-18T04:59:58;26.95;;;10.13;;
69985;SDS011;57328;52.054;5.294;2022-12-18T05:02:25;26.85;;;10.38;;
69985;SDS011;57328;52.054;5.294;2022-12-18T05:04:52;30.08;;;10.40;;
69985;SDS011;57328;52.054;5.294;2022-12-18T05:07:19;19.00;;;7.10;;
69985;SDS011;57328;52.054;5.294;2022-12-18T05:09:46;23.92;;;9.52;;
69985;SDS011;57328;52.054;5.294;2022-12-18T05:12:13;21.02;;;8.98;;
69985;SDS011;57328;52.054;5.294;2022-12-18T05:14:41;25.17;;;9.90;;
69985;SDS011;57328;52.054;5.294;2022-12-18T05:17:08;25.02;;;9.02;;
69985;SDS011;57328;52.054;5.294;2022-12-18T05:19:35;20.50;;;8.32;;
69985;SDS011;57328;52.054;5.294;2022-12-18T05:22:02;23.25;;;8.93;;
69985;SDS011;57328;52.054;5.294;2022-12-18T05:24:29;20.63;;;7.28;;
69985;SDS011;57328;52.054;5.294;2022-12-18T05:26:56;24.45;;;9.48;;
69985;SDS011;57328;52.054;5.294;2022-12-18T05:29:24;22.70;;;9.07;;
69985;SDS011;57328;52.054;5.294;2022-12-18T05:31:51;25.27;;;9.05;;
69985;SDS011;57328;52.054;5.294;2022-12-18T05:34:18;22.00;;;8.32;;
69985;SDS011;57328;52.054;5.294;2022-12-18T05:36:45;25.58;;;9.10;;
69985;SDS011;57328;52.054;5.294;2022-12-18T05:39:12;26.33;;;9.70;;
69985;SDS011;57328;52.054;5.294;2022-12-18T05:41:40;26.20;;;8.50;;
69985;SDS011;57328;52.054;5.294;2022-12-18T05:44:08;23.35;;;8.50;;
69985;SDS011;57328;52.054;5.294;2022-12-18T05:46:35;23.60;;;8.68;;
69985;SDS011;57328;52.054;5.294;2022-12-18T05:49:03;21.38;;;8.75;;
69985;SDS011;57328;52.054;5.294;2022-12-18T05:51:30;20.85;;;8.68;;
69985;SDS011;57328;52.054;5.294;2022-12-18T05:53:57;26.00;;;8.48;;
69985;SDS011;57328;52.054;5.294;2022-12-18T05:56:24;24.63;;;9.15;;
69985;SDS011;57328;52.054;5.294;2022-12-18T05:58:52;18.88;;;6.50;;
69985;SDS011;57328;52.054;5.294;2022-12-18T06:01:22;19.33;;;7.25;;
69985;SDS011;57328;52.054;5.294;2022-12-18T06:03:49;24.33;;;7.07;;
69985;SDS011;57328;52.054;5.294;2022-12-18T06:06:24;20.83;;;7.95;;
69985;SDS011;57328;52.054;5.294;2022-12-18T06:08:52;20.33;;;7.00;;
69985;SDS011;57328;52.054;5.294;2022-12-18T06:11:21;22.30;;;8.63;;
69985;SDS011;57328;52.054;5.294;2022-12-18T06:13:49;18.13;;;7.72;;
69985;SDS011;57328;52.054;5.294;2022-12-18T06:16:23;19.88;;;6.72;;
69985;SDS011;57328;52.054;5.294;2022-12-18T06:18:50;19.83;;;7.70;;
69985;SDS011;57328;52.054;5.294;2022-12-18T06:21:17;16.98;;;7.38;;
69985;SDS011;57328;52.054;5.294;2022-12-18T06:23:44;17.23;;;6.13;;
69985;SDS011;57328;52.054;5.294;2022-12-18T06:26:12;15.35;;;6.13;;
69985;SDS011;57328;52.054;5.294;2022-12-18T06:28:40;21.83;;;8.30;;
69985;SDS011;57328;52.054;5.294;2022-12-18T06:31:07;13.35;;;5.32;;
69985;SDS011;57328;52.054;5.294;2022-12-18T06:33:34;16.63;;;7.30;;
69985;SDS011;57328;52.054;5.294;2022-12-18T06:38:29;24.17;;;9.00;;
69985;SDS011;57328;52.054;5.294;2022-12-18T06:40:57;15.48;;;7.45;;
69985;SDS011;57328;52.054;5.294;2022-12-18T06:43:24;16.88;;;7.30;;
69985;SDS011;57328;52.054;5.294;2022-12-18T06:45:57;22.55;;;8.52;;
69985;SDS011;57328;52.054;5.294;2022-12-18T06:48:24;21.92;;;8.50;;
69985;SDS011;57328;52.054;5.294;2022-12-18T06:50:51;21.20;;;8.63;;
69985;SDS011;57328;52.054;5.294;2022-12-18T06:53:18;19.52;;;8.18;;
69985;SDS011;57328;52.054;5.294;2022-12-18T06:55:46;14.00;;;6.18;;
69985;SDS011;57328;52.054;5.294;2022-12-18T06:58:13;18.17;;;7.95;;
69985;SDS011;57328;52.054;5.294;2022-12-18T07:00:40;19.10;;;7.38;;
69985;SDS011;57328;52.054;5.294;2022-12-18T07:03:08;14.07;;;5.45;;
69985;SDS011;57328;52.054;5.294;2022-12-18T07:05:40;21.67;;;7.32;;
69985;SDS011;57328;52.054;5.294;2022-12-18T07:08:07;18.27;;;7.20;;
69985;SDS011;57328;52.054;5.294;2022-12-18T07:10:41;22.50;;;7.38;;
69985;SDS011;57328;52.054;5.294;2022-12-18T07:13:14;21.95;;;8.43;;
69985;SDS011;57328;52.054;5.294;2022-12-18T07:15:41;15.52;;;6.93;;
69985;SDS011;57328;52.054;5.294;2022-12-18T07:18:08;18.55;;;7.40;;
69985;SDS011;57328;52.054;5.294;2022-12-18T07:20:36;18.95;;;8.55;;
69985;SDS011;57328;52.054;5.294;2022-12-18T07:23:03;17.30;;;6.47;;
69985;SDS011;57328;52.054;5.294;2022-12-18T07:25:34;14.65;;;5.25;;
69985;SDS011;57328;52.054;5.294;2022-12-18T07:28:01;20.00;;;5.72;;
69985;SDS011;57328;52.054;5.294;2022-12-18T07:30:29;17.30;;;7.38;;
69985;SDS011;57328;52.054;5.294;2022-12-18T07:32:56;10.35;;;4.88;;
69985;SDS011;57328;52.054;5.294;2022-12-18T07:35:23;16.02;;;5.55;;
69985;SDS011;57328;52.054;5.294;2022-12-18T07:37:50;16.63;;;5.90;;
69985;SDS011;57328;52.054;5.294;2022-12-18T07:40:19;14.68;;;5.57;;
69985;SDS011;57328;52.054;5.294;2022-12-18T07:42:46;18.55;;;7.40;;
69985;SDS011;57328;52.054;5.294;2022-12-18T07:45:13;20.85;;;6.72;;
69985;SDS011;57328;52.054;5.294;2022-12-18T07:47:40;13.88;;;5.70;;
69985;SDS011;57328;52.054;5.294;2022-12-18T07:50:07;16.88;;;6.28;;
69985;SDS011;57328;52.054;5.294;2022-12-18T07:52:34;25.30;;;8.68;;
69985;SDS011;57328;52.054;5.294;2022-12-18T07:55:02;21.65;;;7.43;;
69985;SDS011;57328;52.054;5.294;2022-12-18T07:57:29;12.20;;;5.13;;
69985;SDS011;57328;52.054;5.294;2022-12-18T08:00:15;19.33;;;7.82;;
69985;SDS011;57328;52.054;5.294;2022-12-18T08:02:42;12.27;;;5.47;;
69985;SDS011;57328;52.054;5.294;2022-12-18T08:05:10;13.77;;;5.43;;
69985;SDS011;57328;52.054;5.294;2022-12-18T08:07:37;14.02;;;5.82;;
69985;SDS011;57328;52.054;5.294;2022-12-18T08:10:04;14.90;;;7.22;;
69985;SDS011;57328;52.054;5.294;2022-12-18T08:12:32;17.08;;;7.57;;
69985;SDS011;57328;52.054;5.294;2022-12-18T08:14:59;15.15;;;5.70;;
69985;SDS011;57328;52.054;5.294;2022-12-18T08:17:26;16.48;;;7.15;;
69985;SDS011;57328;52.054;5.294;2022-12-18T08:19:53;20.00;;;8.45;;
69985;SDS011;57328;52.054;5.294;2022-12-18T08:22:20;19.23;;;7.25;;
69985;SDS011;57328;52.054;5.294;2022-12-18T08:24:48;18.00;;;6.65;;
69985;SDS011;57328;52.054;5.294;2022-12-18T08:27:15;14.93;;;6.63;;
69985;SDS011;57328;52.054;5.294;2022-12-18T08:29:58;18.08;;;6.82;;
69985;SDS011;57328;52.054;5.294;2022-12-18T08:32:25;21.08;;;8.45;;
69985;SDS011;57328;52.054;5.294;2022-12-18T08:34:52;17.55;;;7.70;;
69985;SDS011;57328;52.054;5.294;2022-12-18T08:37:19;11.57;;;5.20;;
69985;SDS011;57328;52.054;5.294;2022-12-18T08:39:47;10.90;;;4.97;;
69985;SDS011;57328;52.054;5.294;2022-12-18T08:42:14;10.98;;;5.40;;
69985;SDS011;57328;52.054;5.294;2022-12-18T08:44:59;19.52;;;7.97;;
69985;SDS011;57328;52.054;5.294;2022-12-18T08:47:26;15.13;;;5.03;;
69985;SDS011;57328;52.054;5.294;2022-12-18T08:49:53;12.77;;;5.70;;
69985;SDS011;57328;52.054;5.294;2022-12-18T08:52:21;13.20;;;5.63;;
69985;SDS011;57328;52.054;5.294;2022-12-18T08:54:48;15.50;;;6.13;;
69985;SDS011;57328;52.054;5.294;2022-12-18T08:57:15;20.83;;;8.25;;
69985;SDS011;57328;52.054;5.294;2022-12-18T08:59:42;10.30;;;5.00;;
69985;SDS011;57328;52.054;5.294;2022-12-18T09:02:10;17.25;;;5.88;;
69985;SDS011;57328;52.054;5.294;2022-12-18T09:04:37;12.38;;;4.93;;
69985;SDS011;57328;52.054;5.294;2022-12-18T09:07:06;16.83;;;8.20;;
69985;SDS011;57328;52.054;5.294;2022-12-18T09:09:33;12.07;;;5.43;;
69985;SDS011;57328;52.054;5.294;2022-12-18T09:12:00;11.43;;;5.35;;
69985;SDS011;57328;52.054;5.294;2022-12-18T09:14:27;13.15;;;5.25;;
69985;SDS011;57328;52.054;5.294;2022-12-18T09:16:54;14.98;;;6.20;;
69985;SDS011;57328;52.054;5.294;2022-12-18T09:19:21;21.17;;;7.90;;
69985;SDS011;57328;52.054;5.294;2022-12-18T09:21:49;11.25;;;4.65;;
69985;SDS011;57328;52.054;5.294;2022-12-18T09:24:16;20.25;;;7.10;;
69985;SDS011;57328;52.054;5.294;2022-12-18T09:26:43;19.83;;;8.02;;
69985;SDS011;57328;52.054;5.294;2022-12-18T09:29:12;19.65;;;7.80;;
69985;SDS011;57328;52.054;5.294;2022-12-18T09:31:41;16.98;;;7.15;;
69985;SDS011;57328;52.054;5.294;2022-12-18T09:34:08;11.30;;;4.55;;
69985;SDS011;57328;52.054;5.294;2022-12-18T09:36:35;14.57;;;5.32;;
69985;SDS011;57328;52.054;5.294;2022-12-18T09:39:03;19.67;;;7.53;;
69985;SDS011;57328;52.054;5.294;2022-12-18T09:44:20;16.63;;;6.15;;
69985;SDS011;57328;52.054;5.294;2022-12-18T09:46:53;20.77;;;8.23;;
69985;SDS011;57328;52.054;5.294;2022-12-18T09:49:23;20.23;;;7.38;;
69985;SDS011;57328;52.054;5.294;2022-12-18T09:51:57;20.45;;;5.65;;
69985;SDS011;57328;52.054;5.294;2022-12-18T09:54:28;17.95;;;6.57;;
69985;SDS011;57328;52.054;5.294;2022-12-18T09:56:57;22.48;;;6.95;;
69985;SDS011;57328;52.054;5.294;2022-12-18T09:59:25;13.30;;;5.97;;
69985;SDS011;57328;52.054;5.294;2022-12-18T10:01:53;17.42;;;6.18;;
69985;SDS011;57328;52.054;5.294;2022-12-18T10:04:22;15.70;;;6.57;;
69985;SDS011;57328;52.054;5.294;2022-12-18T10:06:59;14.75;;;7.68;;
69985;SDS011;57328;52.054;5.294;2022-12-18T10:09:38;21.52;;;7.82;;
69985;SDS011;57328;52.054;5.294;2022-12-18T10:12:17;10.60;;;4.47;;
69985;SDS011;57328;52.054;5.294;2022-12-18T10:14:50;20.20;;;7.50;;
69985;SDS011;57328;52.054;5.294;2022-12-18T10:17:22;17.08;;;7.05;;
69985;SDS011;57328;52.054;5.294;2022-12-18T10:19:57;19.48;;;7.63;;
69985;SDS011;57328;52.054;5.294;2022-12-18T10:25:25;21.20;;;8.88;;
69985;SDS011;57328;52.054;5.294;2022-12-18T10:28:07;17.35;;;6.03;;
69985;SDS011;57328;52.054;5.294;2022-12-18T10:30:34;14.25;;;5.88;;
69985;SDS011;57328;52.054;5.294;2022-12-18T10:33:02;11.98;;;5.75;;
69985;SDS011;57328;52.054;5.294;2022-12-18T10:35:29;11.43;;;4.50;;
69985;SDS011;57328;52.054;5.294;2022-12-18T10:43:16;17.73;;;7.05;;
69985;SDS011;57328;52.054;5.294;2022-12-18T10:46:00;17.65;;;5.80;;
69985;SDS011;57328;52.054;5.294;2022-12-18T10:48:28;17.48;;;7.72;;
69985;SDS011;57328;52.054;5.294;2022-12-18T10:50:57;19.58;;;7.22;;
69985;SDS011;57328;52.054;5.294;2022-12-18T10:53:38;20.60;;;8.23;;
69985;SDS011;57328;52.054;5.294;2022-12-18T10:56:06;17.98;;;6.40;;
69985;SDS011;57328;52.054;5.294;2022-12-18T10:58:37;20.98;;;7.15;;
69985;SDS011;57328;52.054;5.294;2022-12-18T11:01:07;12.35;;;4.47;;
69985;SDS011;57328;52.054;5.294;2022-12-18T11:03:58;20.13;;;7.65;;
69985;SDS011;57328;52.054;5.294;2022-12-18T11:06:28;12.85;;;4.90;;
69985;SDS011;57328;52.054;5.294;2022-12-18T11:09:02;18.73;;;6.70;;
69985;SDS011;57328;52.054;5.294;2022-12-18T11:11:37;16.52;;;6.47;;
69985;SDS011;57328;52.054;5.294;2022-12-18T11:14:05;16.85;;;6.63;;
69985;SDS011;57328;52.054;5.294;2022-12-18T11:16:34;17.25;;;7.15;;
69985;SDS011;57328;52.054;5.294;2022-12-18T11:19:24;14.13;;;6.05;;
69985;SDS011;57328;52.054;5.294;2022-12-18T11:21:53;18.02;;;6.47;;
69985;SDS011;57328;52.054;5.294;2022-12-18T11:24:22;15.18;;;6.03;;
69985;SDS011;57328;52.054;5.294;2022-12-18T11:26:52;18.83;;;7.43;;
69985;SDS011;57328;52.054;5.294;2022-12-18T11:29:28;16.08;;;6.70;;
69985;SDS011;57328;52.054;5.294;2022-12-18T11:34:48;18.95;;;6.50;;
69985;SDS011;57328;52.054;5.294;2022-12-18T11:37:22;17.65;;;7.25;;
69985;SDS011;57328;52.054;5.294;2022-12-18T11:40:06;15.07;;;4.50;;
69985;SDS011;57328;52.054;5.294;2022-12-18T11:42:40;14.85;;;5.53;;
69985;SDS011;57328;52.054;5.294;2022-12-18T11:53:08;16.13;;;7.35;;
69985;SDS011;57328;52.054;5.294;2022-12-18T11:58:18;12.35;;;5.10;;
69985;SDS011;57328;52.054;5.294;2022-12-18T12:01:13;11.88;;;5.40;;
69985;SDS011;57328;52.054;5.294;2022-12-18T12:16:52;12.68;;;5.43;;
69985;SDS011;57328;52.054;5.294;2022-12-18T12:19:32;15.70;;;6.45;;
69985;SDS011;57328;52.054;5.294;2022-12-18T12:27:20;14.57;;;6.30;;
69985;SDS011;57328;52.054;5.294;2022-12-18T12:30:07;10.55;;;4.07;;
69985;SDS011;57328;52.054;5.294;2022-12-18T12:32:42;13.75;;;5.85;;
69985;SDS011;57328;52.054;5.294;2022-12-18T12:40:23;24.90;;;9.60;;
69985;SDS011;57328;52.054;5.294;2022-12-18T12:45:48;15.05;;;6.32;;
69985;SDS011;57328;52.054;5.294;2022-12-18T12:51:10;31.20;;;10.90;;
69985;SDS011;57328;52.054;5.294;2022-12-18T12:53:40;29.00;;;11.73;;
69985;SDS011;57328;52.054;5.294;2022-12-18T12:56:08;19.85;;;8.50;;
69985;SDS011;57328;52.054;5.294;2022-12-18T12:58:51;52.50;;;16.52;;
69985;SDS011;57328;52.054;5.294;2022-12-18T13:03:55;17.45;;;6.90;;
69985;SDS011;57328;52.054;5.294;2022-12-18T13:09:10;20.55;;;8.55;;
69985;SDS011;57328;52.054;5.294;2022-12-18T13:11:45;19.40;;;7.22;;
69985;SDS011;57328;52.054;5.294;2022-12-18T13:14:33;15.52;;;5.95;;
69985;SDS011;57328;52.054;5.294;2022-12-18T13:19:50;25.02;;;9.48;;
69985;SDS011;57328;52.054;5.294;2022-12-18T13:22:31;18.23;;;8.63;;
69985;SDS011;57328;52.054;5.294;2022-12-18T13:25:01;15.02;;;6.03;;
69985;SDS011;57328;52.054;5.294;2022-12-18T13:35:51;18.45;;;8.68;;
69985;SDS011;57328;52.054;5.294;2022-12-18T13:38:23;21.73;;;8.68;;
69985;SDS011;57328;52.054;5.294;2022-12-18T13:40:55;15.70;;;6.70;;
69985;SDS011;57328;52.054;5.294;2022-12-18T13:43:24;16.98;;;7.05;;
69985;SDS011;57328;52.054;5.294;2022-12-18T13:48:23;10.50;;;4.97;;
69985;SDS011;57328;52.054;5.294;2022-12-18T13:50:57;19.42;;;9.32;;
69985;SDS011;57328;52.054;5.294;2022-12-18T13:53:27;20.33;;;8.02;;
69985;SDS011;57328;52.054;5.294;2022-12-18T13:55:55;12.38;;;5.72;;
69985;SDS011;57328;52.054;5.294;2022-12-18T13:58:22;10.07;;;4.65;;
69985;SDS011;57328;52.054;5.294;2022-12-18T14:00:49;13.98;;;7.13;;
69985;SDS011;57328;52.054;5.294;2022-12-18T14:03:19;18.88;;;7.78;;
69985;SDS011;57328;52.054;5.294;2022-12-18T14:05:52;20.48;;;7.65;;
69985;SDS011;57328;52.054;5.294;2022-12-18T14:08:19;19.30;;;7.75;;
69985;SDS011;57328;52.054;5.294;2022-12-18T14:10:47;17.95;;;7.25;;
69985;SDS011;57328;52.054;5.294;2022-12-18T14:15:50;10.52;;;4.90;;
69985;SDS011;57328;52.054;5.294;2022-12-18T14:20:45;15.95;;;5.57;;
69985;SDS011;57328;52.054;5.294;2022-12-18T14:26:21;11.20;;;5.68;;
69985;SDS011;57328;52.054;5.294;2022-12-18T14:28:49;13.48;;;5.38;;
69985;SDS011;57328;52.054;5.294;2022-12-18T14:31:20;18.27;;;7.97;;
69985;SDS011;57328;52.054;5.294;2022-12-18T14:33:48;15.05;;;6.25;;
69985;SDS011;57328;52.054;5.294;2022-12-18T14:36:25;22.10;;;8.95;;
69985;SDS011;57328;52.054;5.294;2022-12-18T14:38:53;22.95;;;8.45;;
69985;SDS011;57328;52.054;5.294;2022-12-18T14:41:21;20.33;;;8.30;;
69985;SDS011;57328;52.054;5.294;2022-12-18T14:43:50;18.17;;;7.40;;
69985;SDS011;57328;52.054;5.294;2022-12-18T14:46:34;24.95;;;9.63;;
69985;SDS011;57328;52.054;5.294;2022-12-18T14:49:14;15.30;;;5.07;;
69985;SDS011;57328;52.054;5.294;2022-12-18T14:51:48;13.63;;;5.95;;
69985;SDS011;57328;52.054;5.294;2022-12-18T14:54:17;14.65;;;6.85;;
69985;SDS011;57328;52.054;5.294;2022-12-18T14:56:56;26.10;;;12.48;;
69985;SDS011;57328;52.054;5.294;2022-12-18T14:59:26;23.13;;;9.35;;
69985;SDS011;57328;52.054;5.294;2022-12-18T15:04:32;15.10;;;6.55;;
69985;SDS011;57328;52.054;5.294;2022-12-18T15:07:09;26.23;;;10.82;;
69985;SDS011;57328;52.054;5.294;2022-12-18T15:09:37;13.15;;;6.53;;
69985;SDS011;57328;52.054;5.294;2022-12-18T15:12:16;17.60;;;7.55;;
69985;SDS011;57328;52.054;5.294;2022-12-18T15:14:46;22.15;;;7.80;;
69985;SDS011;57328;52.054;5.294;2022-12-18T15:17:21;17.92;;;7.22;;
69985;SDS011;57328;52.054;5.294;2022-12-18T15:19:51;18.75;;;7.22;;
69985;SDS011;57328;52.054;5.294;2022-12-18T15:22:20;25.80;;;10.95;;
69985;SDS011;57328;52.054;5.294;2022-12-18T15:24:48;26.95;;;12.20;;
69985;SDS011;57328;52.054;5.294;2022-12-18T15:27:21;23.13;;;10.35;;
69985;SDS011;57328;52.054;5.294;2022-12-18T15:30:03;22.63;;;9.00;;
69985;SDS011;57328;52.054;5.294;2022-12-18T15:32:43;21.95;;;9.85;;
69985;SDS011;57328;52.054;5.294;2022-12-18T15:35:21;24.60;;;11.00;;
69985;SDS011;57328;52.054;5.294;2022-12-18T15:37:52;20.30;;;8.48;;
69985;SDS011;57328;52.054;5.294;2022-12-18T15:40:20;18.10;;;7.72;;
69985;SDS011;57328;52.054;5.294;2022-12-18T15:42:51;16.75;;;5.97;;
69985;SDS011;57328;52.054;5.294;2022-12-18T15:45:38;15.48;;;6.20;;
69985;SDS011;57328;52.054;5.294;2022-12-18T15:51:04;15.75;;;6.50;;
69985;SDS011;57328;52.054;5.294;2022-12-18T15:53:32;19.20;;;5.93;;
69985;SDS011;57328;52.054;5.294;2022-12-18T15:56:00;15.82;;;6.60;;
69985;SDS011;57328;52.054;5.294;2022-12-18T15:58:45;23.15;;;9.45;;
69985;SDS011;57328;52.054;5.294;2022-12-18T16:01:13;15.82;;;6.95;;
69985;SDS011;57328;52.054;5.294;2022-12-18T16:03:40;22.42;;;9.35;;
69985;SDS011;57328;52.054;5.294;2022-12-18T16:06:08;17.05;;;7.43;;
69985;SDS011;57328;52.054;5.294;2022-12-18T16:08:36;22.65;;;10.00;;
69985;SDS011;57328;52.054;5.294;2022-12-18T16:11:04;20.58;;;7.55;;
69985;SDS011;57328;52.054;5.294;2022-12-18T16:13:32;19.45;;;7.40;;
69985;SDS011;57328;52.054;5.294;2022-12-18T16:15:59;14.07;;;6.47;;
69985;SDS011;57328;52.054;5.294;2022-12-18T16:18:27;13.30;;;5.53;;
69985;SDS011;57328;52.054;5.294;2022-12-18T16:21:08;21.20;;;8.23;;
69985;SDS011;57328;52.054;5.294;2022-12-18T16:23:49;24.30;;;7.35;;
69985;SDS011;57328;52.054;5.294;2022-12-18T16:26:30;18.33;;;7.28;;
69985;SDS011;57328;52.054;5.294;2022-12-18T16:29:11;21.92;;;8.13;;
69985;SDS011;57328;52.054;5.294;2022-12-18T16:31:39;16.45;;;6.97;;
69985;SDS011;57328;52.054;5.294;2022-12-18T16:34:24;16.08;;;5.22;;
69985;SDS011;57328;52.054;5.294;2022-12-18T16:36:55;17.67;;;7.43;;
69985;SDS011;57328;52.054;5.294;2022-12-18T16:39:31;18.95;;;7.40;;
69985;SDS011;57328;52.054;5.294;2022-12-18T16:41:59;18.48;;;6.03;;
69985;SDS011;57328;52.054;5.294;2022-12-18T16:44:31;29.65;;;11.35;;